Time;durP1;ratioP1;P1;durP2;ratioP2;P2;SDS_P1;SDS_P2;PMS_P1;PMS_P2;Temp;Humidity;BMP_temperature;BMP_pressure;BME280_temperature;BME280_humidity;BME280_pressure;Samples;Min_cycle;Max_cycle;Signal;HPM_P1;HPM_P2
2021/05/15 00:02:32;;;;;;;3.40;2.37;;;9.60;80.10;;;;;;5089282;28;20528;-74
2021/05/15 00:05:08;;;;;;;3.60;2.50;;;9.70;80.20;;;;;;5087620;28;20563;-75
2021/05/15 00:07:43;;;;;;;3.63;1.90;;;9.70;79.80;;;;;;5089983;28;20463;-74
2021/05/15 00:10:19;;;;;;;2.13;1.80;;;9.80;79.00;;;;;;5087193;28;20482;-75
2021/05/15 00:12:53;;;;;;;3.70;2.13;;;9.90;78.70;;;;;;5090042;28;20478;-79
2021/05/15 00:15:29;;;;;;;1.77;1.50;;;9.90;78.50;;;;;;5086132;28;20936;-75
2021/05/15 00:18:00;;;;;;;2.83;1.63;;;9.90;79.00;;;;;;5086210;28;20458;-74
2021/05/15 00:20:35;;;;;;;2.13;1.60;;;10.00;77.40;;;;;;5083083;28;20480;-74
2021/05/15 00:23:10;;;;;;;2.30;2.00;;;10.00;77.20;;;;;;5089187;28;20496;-74
2021/05/15 00:25:45;;;;;;;2.10;1.60;;;10.00;77.20;;;;;;5088169;28;20456;-74
2021/05/15 00:28:20;;;;;;;4.40;2.00;;;10.10;77.60;;;;;;5091558;28;20565;-77
2021/05/15 00:30:54;;;;;;;1.93;1.60;;;10.20;77.60;;;;;;5090492;28;20849;-75
2021/05/15 00:33:29;;;;;;;2.20;1.60;;;10.20;76.90;;;;;;5090794;28;20446;-74
2021/05/15 00:36:04;;;;;;;2.10;1.47;;;10.20;76.50;;;;;;5091015;28;20543;-73
2021/05/15 00:38:40;;;;;;;2.67;1.03;;;10.30;76.30;;;;;;5092522;28;20603;-74
2021/05/15 00:41:15;;;;;;;1.37;1.10;;;10.30;76.10;;;;;;5091266;28;20468;-74
2021/05/15 00:44:10;;;;;;;1.53;1.20;;;10.30;75.90;;;;;;5093109;28;20475;-75
2021/05/15 00:46:46;;;;;;;0.97;0.93;;;10.40;76.00;;;;;;5088949;28;20457;-75
2021/05/15 00:49:21;;;;;;;1.30;1.20;;;10.40;75.80;;;;;;5090351;28;20541;-77
2021/05/15 00:51:58;;;;;;;1.23;1.03;;;10.40;75.70;;;;;;5088553;28;20499;-79
2021/05/15 00:54:34;;;;;;;2.20;1.17;;;10.40;75.30;;;;;;5091437;28;20528;-78
2021/05/15 00:57:10;;;;;;;1.43;1.33;;;10.50;75.10;;;;;;5087118;28;20481;-78
2021/05/15 00:59:46;;;;;;;1.27;1.17;;;10.50;75.20;;;;;;5090412;28;20516;-76
2021/05/15 01:02:21;;;;;;;1.10;1.00;;;10.50;75.40;;;;;;5088835;28;20444;-75
2021/05/15 01:04:55;;;;;;;1.77;0.97;;;10.50;75.40;;;;;;5093321;28;20488;-77
2021/05/15 01:07:30;;;;;;;1.13;1.00;;;10.60;74.90;;;;;;5091071;28;20824;-78
2021/05/15 01:10:06;;;;;;;1.67;0.80;;;10.60;74.70;;;;;;5091479;28;20527;-75
2021/05/15 01:12:51;;;;;;;1.00;0.90;;;10.70;74.50;;;;;;5091236;28;20457;-75
2021/05/15 01:15:27;;;;;;;0.87;0.80;;;10.60;74.20;;;;;;5092383;28;20452;-75
2021/05/15 01:18:03;;;;;;;1.73;0.97;;;10.50;74.50;;;;;;5090784;28;20529;-74
2021/05/15 01:20:38;;;;;;;1.37;1.10;;;10.50;75.30;;;;;;5093601;28;20550;-73
2021/05/15 01:23:14;;;;;;;1.27;0.80;;;10.40;75.40;;;;;;5087539;28;20450;-73
2021/05/15 01:25:49;;;;;;;1.10;0.93;;;10.40;75.00;;;;;;5090438;28;20553;-73
2021/05/15 01:28:23;;;;;;;1.87;1.10;;;10.20;75.00;;;;;;5089062;28;20475;-74
2021/05/15 01:30:58;;;;;;;1.33;1.20;;;10.10;75.50;;;;;;5089796;28;20449;-74
2021/05/15 01:33:33;;;;;;;1.40;1.00;;;10.00;75.50;;;;;;5088346;28;20458;-74
2021/05/15 01:36:07;;;;;;;1.10;1.00;;;10.00;75.60;;;;;;5092243;28;20790;-73
2021/05/15 01:38:43;;;;;;;1.80;0.90;;;9.90;77.00;;;;;;5087197;28;20542;-76
2021/05/15 01:41:20;;;;;;;1.20;1.10;;;9.90;77.10;;;;;;5090096;28;20548;-73
2021/05/15 01:43:59;;;;;;;1.10;1.00;;;9.80;77.50;;;;;;5088154;28;20897;-72
2021/05/15 01:46:34;;;;;;;0.80;0.80;;;9.70;77.50;;;;;;5089093;28;20524;-76
2021/05/15 01:49:09;;;;;;;0.80;0.80;;;9.80;77.70;;;;;;5088928;28;20566;-72
2021/05/15 01:51:44;;;;;;;2.97;1.47;;;9.70;77.60;;;;;;5090771;28;20455;-73
2021/05/15 01:54:19;;;;;;;1.00;0.90;;;9.70;77.80;;;;;;5088188;28;20455;-75
2021/05/15 01:56:54;;;;;;;4.30;1.40;;;9.70;78.30;;;;;;5090585;28;20967;-73
2021/05/15 01:59:29;;;;;;;2.73;1.83;;;9.70;78.60;;;;;;5088410;28;20522;-76
2021/05/15 02:02:03;;;;;;;2.23;1.97;;;9.70;80.00;;;;;;5090273;28;20546;-75
2021/05/15 02:04:35;;;;;;;3.43;2.03;;;9.70;81.90;;;;;;5087867;28;20957;-73
2021/05/15 02:07:11;;;;;;;3.73;2.50;;;9.70;82.70;;;;;;5091167;28;20563;-73
2021/05/15 02:09:47;;;;;;;3.30;2.20;;;9.70;83.00;;;;;;5088134;28;20453;-73
2021/05/15 02:12:21;;;;;;;3.70;2.70;;;9.70;83.80;;;;;;5088950;28;20899;-74
2021/05/15 02:14:56;;;;;;;3.27;2.30;;;9.70;84.30;;;;;;5085923;28;20537;-72
2021/05/15 02:17:31;;;;;;;3.10;2.37;;;9.70;83.60;;;;;;5090600;28;20958;-73
2021/05/15 02:20:06;;;;;;;2.80;2.60;;;9.80;83.90;;;;;;5088800;28;20813;-76
2021/05/15 02:22:40;;;;;;;3.47;2.60;;;9.90;84.10;;;;;;5086109;28;20489;-73
2021/05/15 02:25:16;;;;;;;3.83;2.57;;;10.00;82.50;;;;;;5085925;28;20453;-73
2021/05/15 02:27:51;;;;;;;3.20;2.73;;;10.00;81.90;;;;;;5087854;28;20579;-73
2021/05/15 02:30:27;;;;;;;2.83;2.40;;;10.00;82.00;;;;;;5086813;28;20857;-77
2021/05/15 02:33:02;;;;;;;4.60;2.10;;;10.00;81.30;;;;;;5091101;28;20530;-75
2021/05/15 02:35:37;;;;;;;3.27;2.60;;;10.00;82.00;;;;;;5087561;28;21054;-74
2021/05/15 02:38:14;;;;;;;3.93;2.63;;;10.00;81.70;;;;;;5086816;28;20500;-74
2021/05/15 02:40:53;;;;;;;3.50;2.20;;;10.00;81.50;;;;;;5087008;28;20465;-74
2021/05/15 02:43:28;;;;;;;2.40;2.10;;;10.00;81.20;;;;;;5088654;28;20811;-73
2021/05/15 02:46:03;;;;;;;2.73;2.20;;;10.10;81.00;;;;;;5087047;28;20443;-74
2021/05/15 02:48:37;;;;;;;2.10;2.00;;;10.10;80.80;;;;;;5087730;28;20848;-73
2021/05/15 02:51:12;;;;;;;2.10;2.00;;;10.10;80.60;;;;;;5085630;28;20474;-73
2021/05/15 02:53:47;;;;;;;5.83;2.43;;;10.10;80.30;;;;;;5086471;28;21067;-76
2021/05/15 02:56:22;;;;;;;2.80;2.07;;;10.10;80.40;;;;;;5090026;28;20525;-73
2021/05/15 02:58:57;;;;;;;1.70;1.60;;;10.10;79.90;;;;;;5087375;28;20527;-73
2021/05/15 03:01:32;;;;;;;3.13;1.97;;;10.10;79.70;;;;;;5087369;28;20608;-74
2021/05/15 03:04:06;;;;;;;2.93;2.33;;;10.20;79.40;;;;;;5088683;28;20543;-73
2021/05/15 03:06:41;;;;;;;2.33;2.13;;;10.10;79.50;;;;;;5084823;28;20566;-73
2021/05/15 03:09:16;;;;;;;2.67;1.63;;;10.20;81.00;;;;;;5090943;28;20488;-73
2021/05/15 03:11:51;;;;;;;2.80;2.00;;;10.10;80.50;;;;;;5090013;28;20481;-72
2021/05/15 03:14:26;;;;;;;2.20;2.00;;;10.10;82.70;;;;;;5090033;28;20556;-74
2021/05/15 03:17:01;;;;;;;2.90;2.10;;;10.20;82.60;;;;;;5089559;28;20488;-74
2021/05/15 03:19:35;;;;;;;3.77;2.07;;;10.20;83.50;;;;;;5089632;28;20542;-73
2021/05/15 03:22:10;;;;;;;3.27;2.40;;;10.20;83.50;;;;;;5086213;28;20532;-72
2021/05/15 03:24:45;;;;;;;5.70;2.70;;;10.10;84.70;;;;;;5085390;28;20452;-73
2021/05/15 03:27:21;;;;;;;3.43;2.30;;;10.10;85.00;;;;;;5086512;28;20486;-74
2021/05/15 03:29:56;;;;;;;2.30;2.10;;;10.10;86.80;;;;;;5086608;28;20451;-77
2021/05/15 03:32:30;;;;;;;1.97;1.87;;;10.10;89.50;;;;;;5087691;28;20816;-79
2021/05/15 03:35:05;;;;;;;5.53;2.30;;;10.10;90.20;;;;;;5092512;28;20490;-78
2021/05/15 03:37:40;;;;;;;2.60;2.40;;;10.10;89.50;;;;;;5092037;28;20460;-80
2021/05/15 03:40:16;;;;;;;2.83;2.40;;;10.10;90.20;;;;;;5096000;28;20531;-79
2021/05/15 03:42:54;;;;;;;2.10;1.93;;;10.10;90.20;;;;;;5086076;28;20841;-78
2021/05/15 03:45:29;;;;;;;2.03;1.87;;;10.10;89.80;;;;;;5091907;28;20474;-78
2021/05/15 03:48:03;;;;;;;2.60;2.10;;;10.00;90.60;;;;;;5088917;28;20566;-77
2021/05/15 03:50:38;;;;;;;3.10;2.00;;;10.10;90.90;;;;;;5089778;28;20450;-77
2021/05/15 03:53:13;;;;;;;2.23;2.07;;;10.00;90.60;;;;;;5089294;28;20541;-78
2021/05/15 03:55:47;;;;;;;2.10;2.00;;;10.10;91.30;;;;;;5091185;28;20459;-80
2021/05/15 03:58:23;;;;;;;3.67;2.00;;;10.10;91.70;;;;;;5085845;28;20995;-73
2021/05/15 04:00:58;;;;;;;2.27;2.17;;;10.10;92.60;;;;;;5085528;28;20528;-73
2021/05/15 04:03:32;;;;;;;3.13;2.60;;;10.10;91.80;;;;;;5085788;28;20458;-74
2021/05/15 04:06:07;;;;;;;2.07;1.97;;;10.10;92.30;;;;;;5087423;28;20536;-74
2021/05/15 04:08:42;;;;;;;2.47;2.27;;;10.10;93.40;;;;;;5084553;28;20500;-72
2021/05/15 04:11:16;;;;;;;4.03;2.87;;;10.10;92.20;;;;;;5089261;28;20898;-72
2021/05/15 04:13:56;;;;;;;3.20;2.40;;;10.10;94.80;;;;;;5087151;28;20566;-72
2021/05/15 04:16:45;;;;;;;2.47;2.20;;;10.10;93.30;;;;;;5088870;28;20520;-72
2021/05/15 04:19:19;;;;;;;2.50;2.20;;;10.10;93.40;;;;;;5084267;28;20508;-72
2021/05/15 04:21:54;;;;;;;3.33;2.60;;;10.10;93.60;;;;;;5088388;28;21041;-72
2021/05/15 04:24:29;;;;;;;6.17;2.60;;;10.10;93.90;;;;;;5085626;28;21046;-72
2021/05/15 04:27:07;;;;;;;2.90;1.77;;;10.10;94.50;;;;;;5086203;28;21013;-72
2021/05/15 04:29:42;;;;;;;2.80;2.10;;;10.10;94.60;;;;;;5085247;28;20843;-72
2021/05/15 04:32:18;;;;;;;2.10;1.90;;;10.10;95.00;;;;;;5087197;28;20557;-72
2021/05/15 04:34:53;;;;;;;4.60;2.00;;;10.10;94.40;;;;;;5082396;28;20578;-72
2021/05/15 04:37:27;;;;;;;2.30;1.97;;;10.10;94.20;;;;;;5087580;28;20485;-72
2021/05/15 04:40:02;;;;;;;2.27;2.07;;;10.10;94.60;;;;;;5083095;28;20549;-77
2021/05/15 04:42:37;;;;;;;1.87;1.77;;;10.10;93.90;;;;;;5087350;28;20524;-77
2021/05/15 04:45:16;;;;;;;2.03;1.83;;;10.20;92.40;;;;;;5085943;28;20459;-73
2021/05/15 04:47:51;;;;;;;4.90;2.30;;;10.20;92.20;;;;;;5086937;28;20573;-73
2021/05/15 04:50:26;;;;;;;3.00;1.80;;;10.20;93.20;;;;;;5084369;28;20458;-73
2021/05/15 04:53:01;;;;;;;1.80;1.70;;;10.20;91.80;;;;;;5086859;28;20909;-77
2021/05/15 04:55:36;;;;;;;1.80;1.70;;;10.20;90.70;;;;;;5086274;28;20776;-72
2021/05/15 04:58:11;;;;;;;3.33;1.87;;;10.20;91.50;;;;;;5090615;28;20447;-72
2021/05/15 05:00:47;;;;;;;2.20;2.00;;;10.30;91.70;;;;;;5082755;28;20536;-72
2021/05/15 05:03:23;;;;;;;2.67;2.10;;;10.30;91.20;;;;;;5092122;28;20489;-71
2021/05/15 05:05:58;;;;;;;2.93;2.40;;;10.40;91.70;;;;;;5089849;28;20946;-71
2021/05/15 05:08:32;;;;;;;3.53;2.07;;;10.40;91.80;;;;;;5087019;28;20545;-77
2021/05/15 05:11:07;;;;;;;2.83;2.07;;;10.40;91.10;;;;;;5087172;28;20537;-73
2021/05/15 05:13:42;;;;;;;2.20;2.00;;;10.30;91.70;;;;;;5091539;28;20850;-74
2021/05/15 05:16:17;;;;;;;3.57;2.30;;;10.30;91.90;;;;;;5089704;28;20493;-73
2021/05/15 05:18:52;;;;;;;3.50;2.63;;;10.30;91.60;;;;;;5091477;28;21037;-74
2021/05/15 05:21:27;;;;;;;3.40;2.20;;;10.90;91.10;;;;;;5091346;28;20578;-72
2021/05/15 05:24:02;;;;;;;3.43;1.80;;;10.90;87.50;;;;;;5092280;28;20456;-75
2021/05/15 05:26:38;;;;;;;3.40;2.10;;;10.60;88.90;;;;;;5087933;28;20583;-77
2021/05/15 05:29:13;;;;;;;2.17;1.97;;;10.40;89.80;;;;;;5089555;28;20450;-73
2021/05/15 05:31:50;;;;;;;5.10;2.17;;;10.40;91.30;;;;;;5085603;28;20546;-76
2021/05/15 05:34:25;;;;;;;3.30;2.57;;;12.00;90.50;;;;;;5086219;28;20446;-74
2021/05/15 05:37:01;;;;;;;3.47;2.10;;;12.00;83.50;;;;;;5089853;28;20453;-76
2021/05/15 05:39:37;;;;;;;2.50;2.30;;;11.30;85.90;;;;;;5091141;28;20468;-76
2021/05/15 05:42:13;;;;;;;5.53;2.43;;;11.50;88.40;;;;;;5088950;28;20964;-73
2021/05/15 05:44:48;;;;;;;2.63;2.37;;;11.50;87.90;;;;;;5090368;28;20435;-73
2021/05/15 05:47:23;;;;;;;2.80;2.53;;;11.40;87.20;;;;;;5087173;28;20890;-73
2021/05/15 05:49:58;;;;;;;2.27;2.17;;;12.20;86.20;;;;;;5090788;28;20507;-73
2021/05/15 05:52:32;;;;;;;2.77;2.10;;;15.20;80.80;;;;;;5087807;28;20468;-76
2021/05/15 05:55:08;;;;;;;2.80;2.07;;;17.10;75.10;;;;;;5091090;28;20933;-73
2021/05/15 05:57:42;;;;;;;3.17;1.97;;;17.20;73.40;;;;;;5087605;28;20981;-73
2021/05/15 06:00:17;;;;;;;4.13;2.27;;;16.30;72.20;;;;;;5088292;28;20497;-74
2021/05/15 06:02:53;;;;;;;2.70;1.80;;;17.00;72.20;;;;;;5088797;28;20505;-76
2021/05/15 06:05:28;;;;;;;2.80;2.17;;;16.80;71.30;;;;;;5091024;28;20450;-76
2021/05/15 06:08:10;;;;;;;4.53;2.83;;;15.80;70.90;;;;;;5088740;28;20557;-76
2021/05/15 06:10:46;;;;;;;3.23;1.77;;;14.90;72.00;;;;;;5093019;28;20965;-80
2021/05/15 06:13:21;;;;;;;2.53;1.90;;;14.10;72.30;;;;;;5092394;28;20523;-80
2021/05/15 06:15:57;;;;;;;3.03;2.20;;;13.80;72.90;;;;;;5092767;28;20447;-78
2021/05/15 06:18:33;;;;;;;3.53;1.80;;;13.40;72.50;;;;;;5091900;28;20482;-78
2021/05/15 06:21:08;;;;;;;1.70;1.60;;;13.00;72.10;;;;;;5093430;28;20447;-81
2021/05/15 06:23:42;;;;;;;2.73;1.60;;;12.60;72.80;;;;;;5086915;28;20541;-77
2021/05/15 06:26:17;;;;;;;2.97;1.80;;;12.80;72.60;;;;;;5094011;28;20832;-77
2021/05/15 06:28:52;;;;;;;1.80;1.70;;;12.80;73.00;;;;;;5089131;28;20462;-78
2021/05/15 06:31:27;;;;;;;2.33;2.10;;;13.00;72.30;;;;;;5093199;28;20952;-81
2021/05/15 06:34:02;;;;;;;2.70;2.03;;;13.20;72.50;;;;;;5091213;28;20446;-77
2021/05/15 06:36:37;;;;;;;1.53;1.43;;;13.00;72.30;;;;;;5089672;28;20497;-78
2021/05/15 06:39:12;;;;;;;1.70;1.60;;;13.20;71.90;;;;;;5088342;28;20451;-81
2021/05/15 06:41:47;;;;;;;1.87;1.40;;;13.40;71.60;;;;;;5095812;28;20451;-79
2021/05/15 06:44:22;;;;;;;2.53;1.33;;;13.50;71.40;;;;;;5097350;28;20447;-78
2021/05/15 06:46:56;;;;;;;1.03;0.93;;;13.60;71.30;;;;;;5089614;28;20467;-78
2021/05/15 06:49:32;;;;;;;3.97;1.30;;;13.90;71.30;;;;;;5090684;28;20443;-78
2021/05/15 06:52:06;;;;;;;2.63;1.30;;;14.30;70.80;;;;;;5149705;22;20475;-80
2021/05/15 06:54:41;;;;;;;2.50;1.50;;;14.50;69.50;;;;;;5092984;28;20531;-80
2021/05/15 06:57:25;;;;;;;1.70;1.60;;;14.70;69.50;;;;;;5095887;28;20467;-78
2021/05/15 07:00:00;;;;;;;3.93;1.77;;;14.60;69.70;;;;;;5094996;28;20459;-78
2021/05/15 07:05:48;;;;;;;3.80;0.90;;;14.60;69.00;;;;;;5085836;28;20518;-79
2021/05/15 07:08:22;;;;;;;1.40;1.00;;;14.30;67.10;;;;;;5110283;28;20470;-78
2021/05/15 07:10:57;;;;;;;1.17;1.00;;;14.00;67.10;;;;;;5104107;28;20462;-77
2021/05/15 07:13:32;;;;;;;2.43;1.30;;;13.70;67.40;;;;;;5075285;28;20507;-77
2021/05/15 07:16:06;;;;;;;1.20;1.10;;;13.90;67.70;;;;;;5089871;28;20577;-78
2021/05/15 07:18:41;;;;;;;3.87;1.10;;;14.50;67.00;;;;;;5086013;28;20449;-78
2021/05/15 07:21:17;;;;;;;1.50;1.17;;;15.10;65.90;;;;;;5097316;28;20455;-79
2021/05/15 07:23:51;;;;;;;2.17;1.20;;;15.00;65.10;;;;;;5095542;28;20465;-78
2021/05/15 07:26:26;;;;;;;2.40;1.50;;;15.00;65.10;;;;;;5080640;28;20453;-78
2021/05/15 07:29:01;;;;;;;1.73;1.13;;;15.20;65.00;;;;;;5084895;28;20515;-78
2021/05/15 07:31:36;;;;;;;1.20;1.10;;;15.40;64.20;;;;;;5084963;28;20479;-79
2021/05/15 07:34:10;;;;;;;1.10;1.00;;;15.80;63.50;;;;;;5090407;28;20477;-79
2021/05/15 07:36:46;;;;;;;1.50;1.40;;;16.00;62.50;;;;;;5091140;28;20449;-80
2021/05/15 07:39:21;;;;;;;1.40;0.90;;;16.40;61.90;;;;;;5089426;28;21071;-78
2021/05/15 07:41:55;;;;;;;0.87;0.60;;;16.60;60.50;;;;;;5088019;28;20456;-79
2021/05/15 07:44:30;;;;;;;1.30;1.20;;;16.60;60.10;;;;;;5090834;28;20487;-79
2021/05/15 07:47:05;;;;;;;0.90;0.87;;;16.70;59.90;;;;;;5088569;28;20929;-78
2021/05/15 07:49:40;;;;;;;1.70;1.07;;;16.30;59.30;;;;;;5087400;28;21067;-78
2021/05/15 07:52:15;;;;;;;0.90;0.90;;;16.20;59.20;;;;;;5089312;28;20599;-79
2021/05/15 07:54:52;;;;;;;1.50;1.03;;;15.90;59.40;;;;;;5086310;28;20897;-82
2021/05/15 07:57:27;;;;;;;0.87;0.73;;;15.70;59.30;;;;;;5082055;28;21565;-83
2021/05/15 08:00:01;;;;;;;1.30;0.90;;;15.50;59.50;;;;;;5083278;28;20963;-79
2021/05/15 08:02:36;;;;;;;1.07;0.93;;;15.50;60.40;;;;;;5086539;28;20557;-81
2021/05/15 08:05:12;;;;;;;0.90;0.80;;;15.80;59.70;;;;;;5089800;28;20440;-82
2021/05/15 08:07:48;;;;;;;3.77;0.83;;;15.80;58.60;;;;;;5086553;28;20554;-84
2021/05/15 08:10:23;;;;;;;0.60;0.60;;;16.20;58.80;;;;;;5096247;28;20439;-82
2021/05/15 08:12:58;;;;;;;1.33;0.90;;;16.30;58.70;;;;;;5092944;28;20452;-81
2021/05/15 08:15:33;;;;;;;1.33;0.90;;;16.30;58.50;;;;;;5101833;28;20451;-81
2021/05/15 08:18:08;;;;;;;1.53;1.00;;;16.30;57.90;;;;;;5094258;28;20566;-82
2021/05/15 08:20:43;;;;;;;1.33;0.80;;;16.20;58.00;;;;;;5093631;28;20475;-84
2021/05/15 08:23:21;;;;;;;1.30;0.80;;;16.20;57.90;;;;;;5094187;28;20514;-82
2021/05/15 08:25:56;;;;;;;1.20;0.80;;;15.60;57.30;;;;;;5094027;28;20432;-81
2021/05/15 08:28:31;;;;;;;1.20;1.10;;;15.60;57.60;;;;;;5106677;28;20538;-84
2021/05/15 08:31:03;;;;;;;1.33;1.00;;;15.90;58.00;;;;;;5113666;28;20444;-81
2021/05/15 08:33:38;;;;;;;1.57;1.00;;;16.10;57.40;;;;;;5103383;28;20464;-84
2021/05/15 08:36:13;;;;;;;0.90;0.70;;;16.30;57.10;;;;;;5106694;28;20455;-82
2021/05/15 08:38:48;;;;;;;1.90;1.20;;;16.60;56.30;;;;;;5113865;28;20463;-82
2021/05/15 08:41:23;;;;;;;3.07;1.00;;;16.60;57.10;;;;;;5113927;28;20921;-80
2021/05/15 08:44:00;;;;;;;1.77;1.10;;;17.20;56.50;;;;;;5100585;28;20492;-81
2021/05/15 08:46:36;;;;;;;4.60;0.90;;;17.20;55.50;;;;;;5097836;28;20439;-81
2021/05/15 08:49:13;;;;;;;1.10;1.00;;;17.10;55.50;;;;;;5104112;28;20867;-81
2021/05/15 08:51:49;;;;;;;1.60;1.10;;;17.00;54.90;;;;;;5103068;28;20475;-81
2021/05/15 08:54:26;;;;;;;3.33;1.10;;;16.90;55.30;;;;;;5099694;28;21009;-83
2021/05/15 08:56:57;;;;;;;1.07;0.83;;;16.90;55.30;;;;;;5091637;28;20436;-81
2021/05/15 08:59:30;;;;;;;1.23;0.80;;;17.20;54.50;;;;;;5093898;28;20534;-81
2021/05/15 09:02:05;;;;;;;9.03;1.00;;;16.90;54.80;;;;;;5097442;28;20463;-80
2021/05/15 09:04:40;;;;;;;0.90;0.90;;;16.80;55.00;;;;;;5092612;28;21034;-80
2021/05/15 09:07:16;;;;;;;1.53;0.83;;;16.10;54.40;;;;;;5095596;28;20461;-80
2021/05/15 09:09:52;;;;;;;1.00;0.80;;;15.90;55.00;;;;;;5098551;28;20942;-82
2021/05/15 09:12:27;;;;;;;1.03;1.00;;;16.00;55.80;;;;;;5101884;28;20498;-81
2021/05/15 09:15:11;;;;;;;1.17;1.07;;;16.00;55.40;;;;;;5100662;28;20467;-85
2021/05/15 09:17:53;;;;;;;1.40;1.30;;;15.90;54.90;;;;;;5102960;28;20443;-81
2021/05/15 09:20:34;;;;;;;2.03;1.13;;;15.80;54.80;;;;;;5101928;28;20477;-80
2021/05/15 09:23:17;;;;;;;3.00;1.00;;;16.30;54.80;;;;;;5094374;28;20598;-82
2021/05/15 09:26:03;;;;;;;1.77;0.77;;;17.10;54.30;;;;;;5096814;28;20460;-81
2021/05/15 09:28:44;;;;;;;0.90;0.80;;;17.10;53.80;;;;;;5101334;28;20474;-81
2021/05/15 09:31:30;;;;;;;1.90;1.17;;;17.20;54.00;;;;;;5101280;28;20554;-79
2021/05/15 09:34:06;;;;;;;3.13;1.10;;;17.70;53.70;;;;;;5103947;28;20456;-84
2021/05/15 09:36:43;;;;;;;0.90;0.87;;;17.70;53.20;;;;;;5102158;28;20515;-82
2021/05/15 09:39:21;;;;;;;0.90;0.80;;;18.10;52.50;;;;;;5101300;28;20479;-81
2021/05/15 09:41:58;;;;;;;1.30;0.73;;;18.10;52.00;;;;;;5097711;28;20507;-81
2021/05/15 09:44:35;;;;;;;0.90;0.80;;;18.10;51.70;;;;;;5103991;28;20445;-80
2021/05/15 09:47:10;;;;;;;1.10;0.70;;;18.30;51.50;;;;;;5100038;28;20453;-79
2021/05/15 09:49:45;;;;;;;1.77;0.90;;;18.20;51.20;;;;;;5103120;28;20481;-82
2021/05/15 09:52:21;;;;;;;1.77;1.13;;;18.30;51.20;;;;;;5102349;28;20470;-80
2021/05/15 09:54:55;;;;;;;1.70;0.80;;;18.10;51.10;;;;;;5097586;28;20470;-81
2021/05/15 09:57:33;;;;;;;4.20;0.80;;;18.20;50.50;;;;;;5098753;28;20535;-82
2021/05/15 10:00:16;;;;;;;2.70;1.20;;;18.50;50.50;;;;;;5096958;28;20985;-81
2021/05/15 10:03:06;;;;;;;4.43;1.13;;;18.70;50.60;;;;;;5096332;28;20521;-82
2021/05/15 10:05:41;;;;;;;0.80;0.70;;;18.60;49.80;;;;;;5096759;28;20458;-84
2021/05/15 10:08:15;;;;;;;0.60;0.60;;;18.50;49.30;;;;;;5093766;28;21049;-83
2021/05/15 10:10:51;;;;;;;1.03;0.60;;;18.90;49.70;;;;;;5097439;28;20449;-85
2021/05/15 10:13:26;;;;;;;1.00;0.70;;;18.70;49.30;;;;;;5103926;28;20960;-83
2021/05/15 10:16:17;;;;;;;1.80;0.90;;;19.00;48.80;;;;;;5093601;28;20450;-80
2021/05/15 10:18:52;;;;;;;0.93;0.70;;;19.20;48.40;;;;;;5099070;28;20450;-79
2021/05/15 10:21:27;;;;;;;0.93;0.70;;;19.30;48.60;;;;;;5098386;28;20454;-80
2021/05/15 10:24:02;;;;;;;0.70;0.70;;;19.30;48.50;;;;;;5109669;28;20560;-80
2021/05/15 10:26:48;;;;;;;1.10;0.80;;;19.40;48.20;;;;;;5101205;28;20478;-85
2021/05/15 10:29:26;;;;;;;1.30;0.67;;;19.70;47.70;;;;;;5102537;28;20468;-79
2021/05/15 10:32:01;;;;;;;1.00;0.80;;;20.20;46.90;;;;;;5099022;28;20458;-76
2021/05/15 10:34:42;;;;;;;1.03;0.60;;;20.30;46.60;;;;;;5090316;28;20457;-80
2021/05/15 10:37:21;;;;;;;1.00;0.90;;;20.70;46.40;;;;;;5094860;28;20533;-79
2021/05/15 10:39:58;;;;;;;1.37;1.00;;;20.80;46.50;;;;;;5095447;28;20880;-80
2021/05/15 10:42:36;;;;;;;2.30;1.10;;;20.70;47.00;;;;;;5097045;28;20477;-80
2021/05/15 10:45:24;;;;;;;1.27;0.87;;;20.10;46.50;;;;;;5088671;28;20491;-81
2021/05/15 10:48:22;;;;;;;1.40;1.27;;;20.00;46.70;;;;;;5094987;28;20502;-82
2021/05/15 10:50:59;;;;;;;0.60;0.60;;;20.70;47.00;;;;;;5091766;28;20938;-82
2021/05/15 10:53:35;;;;;;;1.53;0.97;;;20.40;46.50;;;;;;5098777;28;20448;-84
2021/05/15 10:56:17;;;;;;;1.00;0.90;;;20.50;46.20;;;;;;5095678;28;20475;-82
2021/05/15 10:58:53;;;;;;;0.70;0.50;;;20.30;46.00;;;;;;5093138;28;20543;-80
2021/05/15 11:01:36;;;;;;;0.90;0.60;;;19.60;45.70;;;;;;5093457;28;20464;-81
2021/05/15 11:04:24;;;;;;;0.70;0.50;;;19.50;45.70;;;;;;5102749;28;20450;-85
2021/05/15 11:07:14;;;;;;;1.20;0.80;;;19.30;45.70;;;;;;5096152;28;20966;-82
2021/05/15 11:10:02;;;;;;;0.70;0.50;;;18.60;44.80;;;;;;5086011;28;20501;-85
2021/05/15 11:12:46;;;;;;;1.10;0.67;;;18.20;45.20;;;;;;5093001;28;20451;-85
2021/05/15 11:15:24;;;;;;;1.80;0.60;;;18.50;45.50;;;;;;5105323;28;20478;-83
2021/05/15 11:18:07;;;;;;;1.50;0.97;;;18.00;45.60;;;;;;5105639;28;20540;-82
2021/05/15 11:20:51;;;;;;;0.50;0.50;;;18.00;46.40;;;;;;5080803;28;20878;-81
2021/05/15 11:23:29;;;;;;;2.23;0.80;;;18.30;46.30;;;;;;5091528;28;20442;-83
2021/05/15 11:26:11;;;;;;;1.43;0.90;;;19.30;46.70;;;;;;5100584;28;20467;-83
2021/05/15 11:28:49;;;;;;;2.77;0.80;;;20.60;46.40;;;;;;5103873;28;20542;-81
2021/05/15 11:31:25;;;;;;;1.33;0.90;;;21.00;45.70;;;;;;5092463;28;20878;-82
2021/05/15 11:34:15;;;;;;;0.83;0.80;;;20.90;45.30;;;;;;5098229;28;20468;-83
2021/05/15 11:36:50;;;;;;;0.83;0.60;;;20.60;45.60;;;;;;5103285;28;20447;-84
2021/05/15 11:39:33;;;;;;;0.80;0.67;;;20.40;45.60;;;;;;5093078;28;20435;-83
2021/05/15 11:42:14;;;;;;;2.67;0.87;;;19.70;45.40;;;;;;5095114;28;20512;-86
2021/05/15 11:44:59;;;;;;;1.20;0.70;;;19.60;45.80;;;;;;5100354;28;20486;-80
2021/05/15 11:47:39;;;;;;;0.57;0.47;;;19.90;46.00;;;;;;5096095;28;20625;-81
2021/05/15 11:50:18;;;;;;;0.70;0.60;;;20.50;45.70;;;;;;5079201;28;20465;-81
2021/05/15 11:52:53;;;;;;;1.87;0.80;;;20.60;45.50;;;;;;5095351;28;20485;-80
2021/05/15 11:55:28;;;;;;;1.83;0.70;;;20.70;45.00;;;;;;5099574;28;20474;-80
2021/05/15 11:58:05;;;;;;;0.87;0.80;;;20.50;45.10;;;;;;5096744;28;20454;-81
2021/05/15 12:00:40;;;;;;;0.70;0.60;;;21.20;45.50;;;;;;5104288;28;20441;-85
2021/05/15 12:03:21;;;;;;;0.80;0.70;;;20.80;44.40;;;;;;5111890;28;20454;-84
2021/05/15 12:05:59;;;;;;;0.60;0.60;;;20.90;44.20;;;;;;5110237;28;20454;-85
2021/05/15 12:08:34;;;;;;;0.90;0.90;;;21.30;44.30;;;;;;5103700;28;20486;-87
2021/05/15 12:11:08;;;;;;;1.00;0.50;;;20.90;44.20;;;;;;5111082;28;20520;-86
2021/05/15 12:13:54;;;;;;;1.73;0.90;;;20.70;43.90;;;;;;5110154;28;20469;-88
2021/05/15 12:16:29;;;;;;;1.27;0.47;;;20.50;44.50;;;;;;5109800;28;20456;-84
2021/05/15 12:19:04;;;;;;;0.80;0.50;;;20.20;43.70;;;;;;5070553;28;20635;-80
2021/05/15 12:21:40;;;;;;;0.67;0.50;;;19.60;44.00;;;;;;5097736;28;20448;-84
2021/05/15 12:24:15;;;;;;;0.70;0.60;;;19.10;43.60;;;;;;5094429;28;20529;-84
2021/05/15 12:26:49;;;;;;;0.80;0.50;;;18.90;44.30;;;;;;5082103;28;20436;-81
2021/05/15 12:29:31;;;;;;;2.73;0.70;;;18.80;44.70;;;;;;5098421;28;20459;-80
2021/05/15 12:32:06;;;;;;;2.80;0.87;;;18.60;45.10;;;;;;5094004;28;20459;-82
2021/05/15 12:34:48;;;;;;;4.53;0.50;;;18.70;45.50;;;;;;5100678;28;20446;-81
2021/05/15 12:37:24;;;;;;;1.53;0.80;;;18.50;46.50;;;;;;5092460;28;20454;-81
2021/05/15 12:40:01;;;;;;;0.60;0.40;;;18.30;47.80;;;;;;5100800;28;20534;-79
2021/05/15 12:42:37;;;;;;;0.93;0.93;;;17.90;47.60;;;;;;5097093;28;20443;-80
2021/05/15 12:45:22;;;;;;;0.70;0.60;;;17.80;48.10;;;;;;5101337;28;20453;-80
2021/05/15 12:47:57;;;;;;;0.90;0.47;;;17.60;46.60;;;;;;5104961;28;20861;-81
2021/05/15 12:50:33;;;;;;;0.60;0.60;;;17.50;47.00;;;;;;5097936;28;20454;-82
2021/05/15 12:53:20;;;;;;;0.60;0.60;;;17.40;47.80;;;;;;5114515;28;20563;-80
2021/05/15 12:56:01;;;;;;;0.73;0.73;;;16.90;46.90;;;;;;5107447;28;20492;-84
2021/05/15 12:58:33;;;;;;;6.43;1.20;;;16.40;47.90;;;;;;5105362;28;20445;-84
2021/05/15 13:01:15;;;;;;;6.40;1.33;;;14.50;73.00;;;;;;5104847;28;20440;-87
2021/05/15 13:03:55;;;;;;;4.90;1.80;;;11.20;99.90;;;;;;5097303;28;21175;-77
2021/05/15 13:06:37;;;;;;;2.13;1.90;;;10.70;99.90;;;;;;5104540;28;20458;-80
2021/05/15 13:09:13;;;;;;;1.23;1.13;;;10.50;99.90;;;;;;5109182;28;20486;-83
2021/05/15 13:12:08;;;;;;;1.40;1.10;;;10.10;99.90;;;;;;5111447;28;20451;-83
2021/05/15 13:14:44;;;;;;;2.50;1.40;;;9.80;99.90;;;;;;5105438;28;20526;-81
2021/05/15 13:17:18;;;;;;;2.50;1.90;;;9.60;99.90;;;;;;5101881;28;20440;-84
2021/05/15 13:22:41;;;;;;;1.80;1.70;;;9.60;99.90;;;;;;5099853;28;20449;-81
2021/05/15 13:25:19;;;;;;;1.40;1.30;;;9.60;99.90;;;;;;5100200;28;20477;-83
2021/05/15 13:27:54;;;;;;;3.07;1.50;;;9.50;99.90;;;;;;5101440;28;20464;-83
2021/05/15 13:30:26;;;;;;;3.20;2.07;;;9.60;99.90;;;;;;5096477;28;20458;-82
2021/05/15 13:33:04;;;;;;;1.83;1.40;;;9.80;99.90;;;;;;5104427;28;20539;-83
2021/05/15 13:35:40;;;;;;;1.67;1.57;;;10.00;99.90;;;;;;5083919;28;20856;-82
2021/05/15 13:38:16;;;;;;;1.87;1.77;;;10.40;99.90;;;;;;5100986;28;20454;-80
2021/05/15 13:41:01;;;;;;;0.90;0.90;;;10.80;99.90;;;;;;5102223;28;20484;-81
2021/05/15 13:43:37;;;;;;;1.27;1.17;;;11.10;99.90;;;;;;5103214;28;20516;-82